Time;durP1;ratioP1;P1;durP2;ratioP2;P2;SDS_P1;SDS_P2;PMS_P1;PMS_P2;Temp;Humidity;BMP_temperature;BMP_pressure;BME280_temperature;BME280_humidity;BME280_pressure;Samples;Min_cycle;Max_cycle;Signal;HPM_P1;HPM_P2
2023/10/03 10:44:41;;;;;;;9.63;4.03;;;;;;;19.40;97.57;100576.09;6113986;23;20018;-89
2023/10/03 10:47:08;;;;;;;7.68;3.90;;;;;;;19.35;97.46;100553.44;6046722;23;20524;-89
2023/10/03 10:49:40;;;;;;;10.25;4.20;;;;;;;19.36;98.59;100570.50;6092526;23;20018;-88
2023/10/03 10:52:25;;;;;;;8.15;3.60;;;;;;;19.27;98.15;100565.16;6043515;23;20045;-91
2023/10/03 10:54:51;;;;;;;7.32;3.60;;;;;;;19.25;98.31;100578.28;6046498;23;20062;-91
2023/10/03 10:57:18;;;;;;;6.38;3.53;;;;;;;19.21;99.53;100585.47;6069837;23;20014;-89
2023/10/03 11:00:21;;;;;;;9.98;3.70;;;;;;;19.15;100.00;100577.88;6095566;23;20007;-88
2023/10/03 11:02:47;;;;;;;6.88;3.30;;;;;;;19.08;100.00;100584.63;6022564;23;20050;-88
2023/10/03 11:05:12;;;;;;;10.35;3.83;;;;;;;19.02;100.00;100598.72;6046469;23;20469;-88
2023/10/03 11:07:49;;;;;;;7.53;3.90;;;;;;;18.95;100.00;100625.56;6022429;23;20014;-91
2023/10/03 11:10:17;;;;;;;6.75;3.00;;;;;;;18.81;100.00;100642.88;6070393;23;20015;-90
2023/10/03 11:12:43;;;;;;;7.10;3.38;;;;;;;18.67;100.00;100652.38;6046275;23;20010;-88
2023/10/03 11:15:15;;;;;;;9.27;3.63;;;;;;;18.50;100.00;100654.00;6022228;23;20021;-92
2023/10/03 11:17:48;;;;;;;6.50;3.55;;;;;;;18.44;100.00;100659.94;6046448;23;20018;-89
2023/10/03 11:20:16;;;;;;;5.85;3.83;;;;;;;18.22;100.00;100672.59;6045900;23;20385;-89
2023/10/03 11:22:44;;;;;;;7.47;3.88;;;;;;;18.11;100.00;100684.88;6022654;23;20461;-87
2023/10/03 11:25:11;;;;;;;7.82;4.28;;;;;;;17.93;100.00;100688.72;6046220;23;20015;-87
2023/10/03 11:27:38;;;;;;;7.18;4.00;;;;;;;17.85;100.00;100694.94;5999851;23;20106;-88
2023/10/03 11:30:16;;;;;;;7.75;3.30;;;;;;;17.77;100.00;100696.56;5998670;23;20014;-89
2023/10/03 11:32:44;;;;;;;6.97;3.47;;;;;;;17.77;100.00;100704.69;6046362;23;20015;-89
2023/10/03 11:35:21;;;;;;;6.97;3.45;;;;;;;17.72;100.00;100705.63;6069780;23;20033;-91
2023/10/03 11:37:51;;;;;;;5.03;3.08;;;;;;;17.77;100.00;100704.69;6046409;23;20356;-89
2023/10/03 11:40:20;;;;;;;6.10;3.70;;;;;;;17.79;100.00;100698.94;6069329;23;20010;-92
2023/10/03 11:42:56;;;;;;;7.32;3.10;;;;;;;17.71;100.00;100705.94;6070319;23;20010;-90
2023/10/03 11:45:27;;;;;;;7.60;3.72;;;;;;;17.74;100.00;100718.84;6034452;23;20452;-90
2023/10/03 11:48:00;;;;;;;7.20;3.00;;;;;;;17.73;100.00;100723.47;6123696;23;20031;-89
2023/10/03 11:50:26;;;;;;;6.53;2.85;;;;;;;17.68;100.00;100714.69;6072541;23;20479;-91
2023/10/03 11:52:54;;;;;;;7.05;2.92;;;;;;;17.63;100.00;100721.03;6072793;23;20014;-89
2023/10/03 11:55:20;;;;;;;5.78;1.90;;;;;;;17.59;100.00;100725.50;6075044;23;20030;-90
2023/10/03 11:57:45;;;;;;;5.18;1.90;;;;;;;17.55;100.00;100742.72;6098805;23;20018;-87
2023/10/03 12:00:15;;;;;;;3.88;1.75;;;;;;;17.51;100.00;100747.16;6098494;23;20014;-89
2023/10/03 12:02:44;;;;;;;5.47;1.60;;;;;;;17.40;100.00;100762.88;6074866;23;20447;-87
2023/10/03 12:05:11;;;;;;;6.68;1.40;;;;;;;17.23;100.00;100760.94;6098738;23;20013;-87
2023/10/03 12:07:39;;;;;;;6.78;1.67;;;;;;;17.14;100.00;100760.91;6098663;23;20010;-88
2023/10/03 12:10:10;;;;;;;4.65;1.45;;;;;;;17.10;100.00;100769.97;6122635;23;20041;-87
2023/10/03 12:12:37;;;;;;;5.97;1.20;;;;;;;17.05;100.00;100762.75;6122929;23;20013;-87
2023/10/03 12:15:12;;;;;;;4.82;1.00;;;;;;;17.05;100.00;100787.13;6122847;23;20026;-88
2023/10/03 12:17:47;;;;;;;7.00;1.25;;;;;;;16.94;100.00;100796.63;6099629;23;20352;-90
2023/10/03 12:20:16;;;;;;;5.57;1.02;;;;;;;16.83;100.00;100787.97;6097811;23;20392;-88
2023/10/03 12:22:48;;;;;;;5.50;1.02;;;;;;;16.90;100.00;100809.16;6098415;23;20013;-89
2023/10/03 12:25:17;;;;;;;4.22;0.88;;;;;;;16.73;100.00;100811.75;6073621;23;20018;-87
2023/10/03 12:27:43;;;;;;;3.00;0.70;;;;;;;16.73;100.00;100811.75;6074786;23;20020;-89
2023/10/03 12:30:12;;;;;;;2.47;1.00;;;;;;;16.64;100.00;100809.78;6121870;23;20082;-90
2023/10/03 12:32:39;;;;;;;2.97;0.70;;;;;;;16.59;100.00;100819.91;6098718;23;20023;-89
2023/10/03 12:35:08;;;;;;;5.15;1.25;;;;;;;16.53;100.00;100821.97;6097139;23;20018;-88
2023/10/03 12:37:35;;;;;;;5.03;0.68;;;;;;;16.46;100.00;100831.59;6097864;23;20020;-89
2023/10/03 12:40:04;;;;;;;4.50;0.90;;;;;;;16.42;100.00;100841.44;6121664;23;20107;-90
2023/10/03 12:42:31;;;;;;;2.70;0.47;;;;;;;16.38;100.00;100847.44;6098160;23;20104;-89
2023/10/03 12:45:00;;;;;;;3.13;0.65;;;;;;;16.30;100.00;100836.56;6098343;23;20078;-89
2023/10/03 12:47:28;;;;;;;4.47;0.80;;;;;;;16.28;100.00;100846.88;6098886;23;20014;-91
2023/10/03 12:49:57;;;;;;;3.38;0.82;;;;;;;16.27;100.00;100856.09;6098041;23;20013;-88
2023/10/03 12:52:24;;;;;;;1.92;0.60;;;;;;;16.21;100.00;100851.91;6098288;23;20444;-89
2023/10/03 12:54:50;;;;;;;2.45;0.77;;;;;;;16.13;100.00;100858.03;6123016;23;20029;-87
2023/10/03 12:57:19;;;;;;;4.18;0.80;;;;;;;16.06;100.00;100875.44;6098967;23;20022;-90
2023/10/03 12:59:49;;;;;;;6.45;1.10;;;;;;;16.14;100.00;100871.22;6074493;23;20452;-91
2023/10/03 13:02:17;;;;;;;3.38;0.90;;;;;;;16.23;100.00;100882.13;6096757;23;20018;-91
2023/10/03 13:04:44;;;;;;;2.97;1.00;;;;;;;16.17;100.00;100888.72;6098732;23;20013;-90
2023/10/03 13:07:11;;;;;;;7.90;1.45;;;;;;;16.20;100.00;100883.53;6097763;23;20017;-90
2023/10/03 13:09:39;;;;;;;3.13;1.00;;;;;;;16.20;100.00;100886.22;6074765;23;20044;-88
2023/10/03 13:12:06;;;;;;;7.38;1.38;;;;;;;16.31;100.00;100889.50;6075344;23;20014;-88
2023/10/03 13:14:32;;;;;;;4.55;1.25;;;;;;;16.32;100.00;100880.28;6072599;23;20053;-92
2023/10/03 13:17:01;;;;;;;4.55;1.27;;;;;;;16.37;100.00;100872.06;6123682;23;20044;-87
2023/10/03 13:19:31;;;;;;;7.18;1.30;;;;;;;16.30;100.00;100877.88;6100512;23;20010;-90
2023/10/03 13:22:04;;;;;;;6.88;1.33;;;;;;;16.34;100.00;100888.91;6075803;23;20049;-89
2023/10/03 13:24:31;;;;;;;5.78;1.20;;;;;;;16.30;100.00;100882.50;6099619;23;20018;-90
2023/10/03 13:27:02;;;;;;;5.95;1.25;;;;;;;16.26;100.00;100889.63;6124524;23;20017;-89
2023/10/03 13:29:29;;;;;;;5.82;1.40;;;;;;;16.27;100.00;100904.72;6100105;23;20028;-90
2023/10/03 13:31:57;;;;;;;7.85;1.55;;;;;;;16.29;100.00;100907.91;6122557;23;20646;-89
2023/10/03 13:34:28;;;;;;;3.95;0.95;;;;;;;16.20;100.00;100915.94;6099815;23;20018;-87
2023/10/03 13:36:55;;;;;;;5.80;1.13;;;;;;;16.17;100.00;100923.84;6075682;23;20041;-90
2023/10/03 13:39:26;;;;;;;5.60;1.02;;;;;;;16.11;100.00;100929.34;6075295;23;20101;-91
2023/10/03 13:41:53;;;;;;;4.50;0.95;;;;;;;16.09;100.00;100946.97;6099605;23;20013;-90
2023/10/03 13:44:19;;;;;;;6.65;1.33;;;;;;;16.07;100.00;100966.19;6099772;23;20024;-92
2023/10/03 13:46:48;;;;;;;2.95;1.15;;;;;;;16.09;100.00;100984.81;6076340;23;20017;-89
2023/10/03 13:49:15;;;;;;;5.72;1.23;;;;;;;15.97;100.00;100988.00;6075244;23;20029;-91
2023/10/03 13:51:43;;;;;;;3.22;0.90;;;;;;;15.90;100.00;100989.50;6099021;23;20010;-88
2023/10/03 13:54:11;;;;;;;4.43;1.70;;;;;;;15.82;100.00;100993.69;6074188;23;20010;-89
2023/10/03 13:56:36;;;;;;;4.68;0.93;;;;;;;15.77;100.00;101012.66;6098954;23;20010;-88
2023/10/03 13:59:02;;;;;;;7.07;1.20;;;;;;;15.66;100.00;100993.16;6075226;23;20050;-92
2023/10/03 14:01:29;;;;;;;3.83;0.77;;;;;;;15.68;100.00;101007.16;6074778;23;20018;-90
2023/10/03 14:03:57;;;;;;;4.72;1.00;;;;;;;15.60;100.00;100999.72;6098408;23;20463;-89
2023/10/03 14:06:26;;;;;;;3.47;0.90;;;;;;;15.52;100.00;101014.72;6098381;23;20033;-89
2023/10/03 14:08:54;;;;;;;6.43;0.90;;;;;;;15.50;100.00;101021.47;6098478;23;20046;-90
2023/10/03 14:11:22;;;;;;;4.53;0.90;;;;;;;15.49;100.00;101031.47;6097399;23;20025;-89
2023/10/03 14:13:52;;;;;;;6.68;1.10;;;;;;;15.42;100.00;101035.66;6074987;23;20018;-90
2023/10/03 14:16:21;;;;;;;3.53;1.00;;;;;;;15.47;100.00;101041.78;6073317;23;20024;-93
2023/10/03 14:18:51;;;;;;;5.70;0.90;;;;;;;15.44;100.00;101039.66;6123665;23;20351;-87
2023/10/03 14:21:22;;;;;;;5.30;1.20;;;;;;;15.26;100.00;101033.22;6072838;23;20771;-89
2023/10/03 14:23:48;;;;;;;4.78;1.30;;;;;;;15.16;100.00;101044.13;6073512;23;20049;-89
2023/10/03 14:26:20;;;;;;;6.32;1.92;;;;;;;15.01;100.00;101053.25;6071727;23;20096;-88
2023/10/03 14:28:48;;;;;;;7.78;1.60;;;;;;;15.03;100.00;101069.94;6093933;23;20409;-87
2023/10/03 14:31:14;;;;;;;;;;;;;;;15.02;100.00;101068.34;6099467;23;20044;-89
2023/10/03 14:33:41;;;;;;;6.45;1.60;;;;;;;15.02;100.00;101071.03;6099487;23;19971;-88
2023/10/03 14:36:11;;;;;;;5.85;1.83;;;;;;;15.00;100.00;101081.31;6074992;23;20017;-88
2023/10/03 14:38:37;;;;;;;7.93;1.80;;;;;;;15.00;100.00;101073.22;6074945;23;20441;-89
2023/10/03 14:41:03;;;;;;;;;;;;;;;15.01;100.00;101091.00;6099215;23;20010;-88
2023/10/03 14:43:31;;;;;;;8.50;1.48;;;;;;;14.99;100.00;101081.63;6075685;23;20254;-89
2023/10/03 14:45:56;;;;;;;10.30;1.83;;;;;;;15.05;100.00;101082.34;6123572;23;20021;-91
2023/10/03 14:48:26;;;;;;;10.13;1.95;;;;;;;15.06;100.00;101081.25;6123670;23;20018;-92
2023/10/03 14:50:57;;;;;;;6.60;1.63;;;;;;;15.14;100.00;101099.47;6075441;23;20037;-90
2023/10/03 14:53:24;;;;;;;8.00;1.77;;;;;;;15.10;100.00;101106.53;6098733;23;20006;-88
2023/10/03 14:55:51;;;;;;;8.18;2.10;;;;;;;15.13;100.00;101130.25;6098904;23;20017;-89
2023/10/03 14:58:21;;;;;;;8.50;2.85;;;;;;;15.07;100.00;101115.22;6097459;23;20025;-90
2023/10/03 15:01:17;;;;;;;10.63;2.13;;;;;;;15.06;100.00;101124.41;6098742;23;20017;-90
2023/10/03 15:04:09;;;;;;;9.05;2.28;;;;;;;15.11;100.00;101118.97;6123086;23;20025;-89
2023/10/03 15:06:57;;;;;;;7.93;1.55;;;;;;;15.12;100.00;101117.88;6098206;23;20194;-90
2023/10/03 15:09:23;;;;;;;8.75;2.30;;;;;;;15.08;100.00;101116.84;6074726;23;20013;-90
2023/10/03 15:11:50;;;;;;;10.88;2.00;;;;;;;15.08;100.00;101114.13;6124005;23;20697;-88
2023/10/03 15:14:16;;;;;;;9.35;2.65;;;;;;;15.12;100.00;101125.97;6123650;23;20016;-90
2023/10/03 15:16:43;;;;;;;;;;;;;;;15.17;100.00;101126.69;6099689;23;20021;-89
2023/10/03 15:19:09;;;;;;;8.27;2.10;;;;;;;15.21;99.75;101129.59;6074879;23;20034;-89
2023/10/03 15:21:40;;;;;;;7.40;1.80;;;;;;;15.26;100.00;101148.44;6098562;23;20024;-89
2023/10/03 15:24:11;;;;;;;10.68;2.10;;;;;;;15.27;95.07;101142.72;6076080;23;20022;-91
2023/10/03 15:27:03;;;;;;;8.18;1.83;;;;;;;15.30;96.53;101147.53;6075099;23;20158;-90
2023/10/03 15:29:53;;;;;;;8.70;1.90;;;;;;;15.33;100.00;101159.66;6084588;23;20010;-92
2023/10/03 15:32:27;;;;;;;8.65;2.13;;;;;;;15.28;98.06;101155.13;6119401;23;20779;-89
2023/10/03 15:34:54;;;;;;;10.20;2.03;;;;;;;15.30;96.89;101165.63;6099906;23;20018;-91
2023/10/03 15:37:24;;;;;;;8.07;2.08;;;;;;;15.30;99.75;101173.72;6098174;23;20021;-93
2023/10/03 17:32:08;;;;;;;6.00;1.63;;;;;;;13.20;100.00;101418.72;6154415;23;20447;-91
2023/10/03 17:34:34;;;;;;;4.85;1.02;;;;;;;13.16;100.00;101428.38;6081234;23;20484;-90
2023/10/03 17:37:04;;;;;;;3.40;1.10;;;;;;;13.12;100.00;101432.69;6056649;23;20044;-88
2023/10/03 17:39:31;;;;;;;6.18;1.40;;;;;;;13.06;100.00;101423.00;6103799;23;20039;-89
2023/10/03 17:41:57;;;;;;;3.08;1.38;;;;;;;12.99;100.00;101428.66;6104600;23;20013;-87
2023/10/03 17:44:23;;;;;;;;;;;;;;;12.91;100.00;101437.25;6105454;23;20147;-88
2023/10/03 17:46:48;;;;;;;4.75;1.08;;;;;;;12.82;100.00;101445.03;6080604;23;19915;-92
2023/10/03 17:49:14;;;;;;;;;;;;;;;12.79;100.00;101455.50;6104402;23;20234;-89
2023/10/03 17:51:42;;;;;;;4.35;1.15;;;;;;;12.73;100.00;101453.88;6080897;23;19984;-89
2023/10/03 17:54:08;;;;;;;;;;;;;;;12.69;100.00;101460.88;6080788;23;20044;-90
2023/10/03 17:56:35;;;;;;;6.45;1.75;;;;;;;12.62;100.00;101471.09;6078479;23;19919;-90
2023/10/03 17:59:01;;;;;;;5.40;1.40;;;;;;;12.58;100.00;101470.78;6102659;23;20153;-88
2023/10/03 18:01:27;;;;;;;3.05;1.10;;;;;;;12.59;100.00;101483.16;6079084;23;20014;-89
2023/10/03 18:03:54;;;;;;;5.55;1.30;;;;;;;12.59;100.00;101483.16;6080620;23;20740;-87
2023/10/03 18:06:21;;;;;;;5.85;1.20;;;;;;;12.58;100.00;101484.22;6080360;23;20018;-89
2023/10/03 18:08:47;;;;;;;8.07;1.63;;;;;;;12.60;100.00;101484.78;6080416;23;20087;-89
2023/10/03 18:11:13;;;;;;;;;;;;;;;12.59;100.00;101496.59;6080450;23;20013;-89
2023/10/03 18:13:40;;;;;;;7.38;1.20;;;;;;;12.56;100.00;101505.19;6129984;23;19912;-92
2023/10/03 18:16:13;;;;;;;4.05;1.30;;;;;;;12.56;100.00;101510.56;6104388;23;20009;-89
2023/10/03 18:18:39;;;;;;;4.03;1.15;;;;;;;12.53;100.00;101509.22;6129153;23;20013;-90
2023/10/03 18:21:10;;;;;;;6.05;1.20;;;;;;;12.53;100.00;101503.00;6080550;23;20021;-89
2023/10/03 18:23:37;;;;;;;6.78;1.40;;;;;;;12.51;100.00;101507.84;6080352;23;20036;-89
2023/10/03 18:26:07;;;;;;;4.78;1.40;;;;;;;12.48;100.00;101508.38;6104025;23;20019;-89
2023/10/03 18:28:33;;;;;;;5.30;1.50;;;;;;;12.45;100.00;101514.28;6080366;23;20024;-89
2023/10/03 18:30:58;;;;;;;;;;;;;;;12.40;100.00;101523.13;6105119;23;20009;-90
2023/10/03 18:33:24;;;;;;;5.15;1.52;;;;;;;12.36;100.00;101526.59;6095577;23;19912;-89
2023/10/03 18:35:50;;;;;;;4.38;1.20;;;;;;;12.34;100.00;101539.50;6128800;23;20467;-89
2023/10/03 18:38:15;;;;;;;;;;;;;;;12.29;100.00;101537.59;6104418;23;20100;-90
2023/10/03 18:40:42;;;;;;;6.45;1.25;;;;;;;12.24;100.00;101535.66;6128410;23;20227;-90
2023/10/03 18:43:09;;;;;;;5.80;1.77;;;;;;;12.23;100.00;101544.81;6129540;23;20731;-89
2023/10/03 18:45:39;;;;;;;;;;;;;;;12.21;100.00;101538.88;6103956;23;20026;-89
2023/10/03 18:48:06;;;;;;;7.95;1.30;;;;;;;12.16;100.00;101548.78;6081195;23;19936;-91
2023/10/03 18:50:31;;;;;;;7.57;1.90;;;;;;;12.13;100.00;101555.50;6103191;23;20452;-90
2023/10/03 18:52:57;;;;;;;6.43;1.30;;;;;;;12.12;100.00;101558.41;6104216;23;20017;-88
2023/10/03 18:55:23;;;;;;;5.88;1.55;;;;;;;12.12;100.00;101563.78;6103784;23;20017;-90
2023/10/03 18:57:49;;;;;;;5.22;1.40;;;;;;;12.12;100.00;101566.47;6129329;23;20017;-91
2023/10/03 19:00:15;;;;;;;6.00;1.40;;;;;;;12.11;100.00;101568.34;6127805;23;20787;-91
2023/10/03 19:02:42;;;;;;;8.27;1.70;;;;;;;12.09;100.00;101565.13;6127783;23;20539;-91
2023/10/03 19:05:09;;;;;;;10.88;2.15;;;;;;;12.07;100.00;101569.97;6128748;23;20036;-90
2023/10/03 19:07:38;;;;;;;5.68;1.42;;;;;;;12.05;100.00;101555.97;6128155;23;20021;-91
2023/10/03 19:10:11;;;;;;;5.97;2.03;;;;;;;12.03;100.00;101566.16;6103988;23;20040;-89
2023/10/03 19:12:36;;;;;;;6.57;1.50;;;;;;;12.03;100.00;101575.03;6103914;23;20088;-89
2023/10/03 19:15:03;;;;;;;7.53;1.60;;;;;;;12.03;100.00;101585.75;6153271;23;20063;-89
2023/10/03 19:17:29;;;;;;;11.10;1.75;;;;;;;12.00;100.00;101582.81;6104108;23;20017;-91
2023/10/03 19:19:57;;;;;;;6.70;1.58;;;;;;;12.01;100.00;101600.53;6102860;23;20025;-90
2023/10/03 19:22:24;;;;;;;9.77;2.05;;;;;;;11.99;100.00;101587.38;6150220;23;20732;-90
2023/10/03 19:24:51;;;;;;;10.60;1.48;;;;;;;12.03;100.00;101609.13;6104042;23;20021;-90
2023/10/03 19:27:20;;;;;;;7.38;2.03;;;;;;;12.07;100.00;101609.44;6128578;23;20017;-89
2023/10/03 19:29:47;;;;;;;7.63;1.75;;;;;;;12.09;100.00;101616.16;6152747;23;20016;-89
2023/10/03 19:32:15;;;;;;;7.80;1.70;;;;;;;12.11;100.00;101632.78;6103523;23;20095;-88
2023/10/03 19:34:41;;;;;;;5.15;1.70;;;;;;;12.16;100.00;101646.25;6103716;23;20013;-91
2023/10/03 19:37:07;;;;;;;3.92;1.58;;;;;;;12.18;100.00;101633.38;6104802;23;20017;-90
2023/10/03 19:39:33;;;;;;;;;;;;;;;12.21;100.00;101646.31;6104090;23;20026;-89
2023/10/03 19:42:00;;;;;;;6.00;1.98;;;;;;;12.22;100.00;101644.44;6104279;23;20467;-89
2023/10/03 19:44:26;;;;;;;7.35;2.20;;;;;;;12.22;100.00;101660.53;6128207;23;20029;-90
2023/10/03 19:46:57;;;;;;;8.57;1.75;;;;;;;12.21;100.00;101662.41;6104206;23;20100;-90
2023/10/03 19:49:29;;;;;;;8.45;2.17;;;;;;;12.19;100.00;101678.00;6127252;23;20017;-89
2023/10/03 19:51:56;;;;;;;8.20;2.10;;;;;;;12.23;100.00;101673.72;6127523;23;20039;-89
2023/10/03 19:54:22;;;;;;;7.32;2.17;;;;;;;12.26;100.00;101678.59;6152866;23;20009;-89
2023/10/03 19:56:48;;;;;;;11.45;1.77;;;;;;;12.25;100.00;101676.94;6103878;23;20100;-88
2023/10/03 19:59:14;;;;;;;8.60;2.15;;;;;;;12.26;100.00;101673.22;6152543;23;20352;-88
2023/10/03 20:01:39;;;;;;;6.70;1.80;;;;;;;12.36;100.00;101693.13;6103042;23;20028;-90
2023/10/03 20:04:08;;;;;;;9.38;2.00;;;;;;;12.38;100.00;101689.13;6152698;23;20017;-91
2023/10/03 20:06:38;;;;;;;6.65;1.85;;;;;;;12.41;100.00;101695.88;6103934;23;20017;-88
2023/10/03 20:09:04;;;;;;;7.63;2.00;;;;;;;12.42;100.00;101697.47;6127955;23;20014;-89
2023/10/03 20:11:30;;;;;;;;;;;;;;;12.42;100.00;101697.47;6127282;23;20463;-88
2023/10/03 20:13:56;;;;;;;11.10;2.17;;;;;;;12.42;100.00;101694.78;6127404;23;19908;-85
2023/10/03 20:16:25;;;;;;;8.68;2.08;;;;;;;12.41;100.00;101702.03;6102825;23;20041;-90
2023/10/03 20:18:52;;;;;;;9.48;2.10;;;;;;;12.38;100.00;101717.84;6127158;23;20024;-89
2023/10/03 20:21:22;;;;;;;9.52;2.17;;;;;;;12.35;100.00;101723.75;6150280;23;20048;-89
2023/10/03 20:23:49;;;;;;;10.88;2.13;;;;;;;12.33;100.00;101725.88;6103809;23;20053;-87
2023/10/03 20:26:16;;;;;;;6.63;1.90;;;;;;;12.34;100.00;101722.94;6152382;23;20010;-88
2023/10/03 20:28:44;;;;;;;7.20;1.83;;;;;;;12.34;100.00;101722.13;6128141;23;20009;-87
2023/10/03 20:31:13;;;;;;;7.40;1.65;;;;;;;12.26;100.00;101707.28;6128767;23;20084;-89
2023/10/03 20:33:40;;;;;;;5.90;2.17;;;;;;;12.26;100.00;101726.91;6103548;23;20024;-88
2023/10/03 20:36:12;;;;;;;8.15;1.75;;;;;;;12.26;100.00;101726.91;6103664;23;20366;-88
2023/10/03 20:38:38;;;;;;;10.00;2.75;;;;;;;12.25;100.00;101730.66;6102108;23;20103;-89
2023/10/03 20:41:15;;;;;;;5.75;1.98;;;;;;;12.22;100.00;101720.44;6127870;23;20208;-90
2023/10/03 20:43:41;;;;;;;8.18;1.92;;;;;;;12.20;100.00;101722.56;6126972;23;20021;-90
2023/10/03 20:46:15;;;;;;;5.80;1.92;;;;;;;12.21;100.00;101726.88;6103675;23;20124;-90
2023/10/03 20:48:42;;;;;;;6.13;1.80;;;;;;;12.20;100.00;101727.13;6128040;23;20439;-89
2023/10/03 20:51:24;;;;;;;4.57;1.42;;;;;;;12.16;100.00;101726.81;6127462;23;20090;-90
2023/10/03 20:53:53;;;;;;;6.80;1.85;;;;;;;12.09;100.00;101723.53;6104185;23;20400;-87
2023/10/03 20:56:19;;;;;;;6.40;1.70;;;;;;;12.07;100.00;101720.31;6127211;23;20269;-89
2023/10/03 20:58:46;;;;;;;5.55;1.83;;;;;;;12.02;100.00;101718.38;6127453;23;20021;-89
2023/10/03 21:01:13;;;;;;;7.95;1.98;;;;;;;11.99;100.00;101720.78;6102907;23;20462;-89
2023/10/03 21:03:39;;;;;;;5.50;2.00;;;;;;;11.95;100.00;101719.66;6102769;23;20100;-89
2023/10/03 21:06:06;;;;;;;7.05;1.88;;;;;;;11.91;100.00;101723.91;6079638;23;20024;-87
2023/10/03 21:08:32;;;;;;;6.20;1.77;;;;;;;11.88;100.00;101729.78;6127071;23;20357;-90
2023/10/03 21:10:58;;;;;;;6.20;1.50;;;;;;;11.88;100.00;101730.59;6127609;23;20017;-88
2023/10/03 21:13:26;;;;;;;7.55;2.17;;;;;;;11.88;100.00;101743.22;6127124;23;20052;-89
2023/10/03 21:15:52;;;;;;;10.10;1.60;;;;;;;11.85;100.00;101741.03;6127306;23;20018;-90
2023/10/03 21:18:18;;;;;;;8.18;2.00;;;;;;;11.81;100.00;101747.97;6103155;23;20088;-88
2023/10/03 21:20:48;;;;;;;10.15;2.15;;;;;;;11.79;100.00;101758.13;6127523;23;20056;-89
2023/10/03 21:23:15;;;;;;;8.07;1.95;;;;;;;11.74;100.00;101751.63;6127770;23;20080;-88
2023/10/03 21:25:41;;;;;;;7.35;2.20;;;;;;;11.75;100.00;101758.63;6151849;23;20034;-91
2023/10/03 21:28:08;;;;;;;8.93;2.08;;;;;;;11.71;100.00;101754.81;6103644;23;20079;-88
2023/10/03 21:30:33;;;;;;;11.82;2.30;;;;;;;11.72;100.00;101764.50;6103209;23;20088;-87
2023/10/03 21:32:59;;;;;;;5.68;1.67;;;;;;;11.67;100.00;101772.50;6154842;23;20013;-89
2023/10/03 21:35:25;;;;;;;8.50;1.80;;;;;;;11.67;100.00;101761.75;6128977;23;20392;-88
2023/10/03 21:37:52;;;;;;;8.13;2.10;;;;;;;11.64;100.00;101764.94;6105347;23;20045;-89
2023/10/03 21:40:18;;;;;;;9.05;1.90;;;;;;;11.59;100.00;101764.91;6103826;23;20017;-89
2023/10/03 21:42:44;;;;;;;8.23;2.00;;;;;;;11.56;100.00;101769.94;6104963;23;20041;-93
2023/10/03 21:45:15;;;;;;;7.05;1.73;;;;;;;11.56;100.00;101768.06;6105081;23;20017;-90
2023/10/03 21:47:53;;;;;;;8.68;2.15;;;;;;;11.55;100.00;101779.06;6080203;23;20117;-89
2023/10/03 21:50:19;;;;;;;6.05;1.85;;;;;;;11.52;100.00;101772.34;6078692;23;20040;-87
2023/10/03 21:52:45;;;;;;;;;;;;;;;11.51;100.00;101761.81;6078859;23;20021;-90
2023/10/03 21:55:12;;;;;;;9.10;2.22;;;;;;;11.47;100.00;101778.44;6127044;23;19915;-89
2023/10/03 21:57:38;;;;;;;5.60;1.95;;;;;;;11.48;100.00;101781.94;6077463;23;20005;-90
2023/10/03 22:00:21;;;;;;;;;;;;;;;11.48;100.00;101779.25;6077322;23;20100;-89
2023/10/03 22:02:54;;;;;;;9.10;1.50;;;;;;;11.42;100.00;101780.25;6101506;23;19987;-88
2023/10/03 22:05:21;;;;;;;9.00;1.95;;;;;;;11.47;100.00;101789.16;6102146;23;20399;-91
2023/10/03 22:07:47;;;;;;;9.70;1.75;;;;;;;11.48;100.00;101785.41;6126388;23;20060;-91
2023/10/03 22:10:15;;;;;;;6.95;2.15;;;;;;;11.51;100.00;101785.97;6077210;23;20090;-91
2023/10/03 22:12:42;;;;;;;6.95;2.05;;;;;;;11.51;100.00;101778.72;6077895;23;20025;-90
2023/10/03 22:15:09;;;;;;;8.98;2.10;;;;;;;11.52;100.00;101793.78;6126437;23;20010;-90
2023/10/03 22:17:47;;;;;;;9.77;2.22;;;;;;;11.52;100.00;101785.75;6077897;23;20020;-91
2023/10/03 22:20:22;;;;;;;7.35;2.08;;;;;;;11.56;100.00;101792.22;6128368;23;20019;-90
2023/10/03 22:23:16;;;;;;;6.45;1.73;;;;;;;11.55;100.00;101800.53;6102983;23;20169;-90
2023/10/03 22:25:41;;;;;;;11.38;2.15;;;;;;;11.63;100.00;101798.19;6078708;23;20017;-90
2023/10/03 22:28:11;;;;;;;6.18;1.63;;;;;;;11.67;100.00;101798.53;6083704;23;20337;-91
2023/10/03 22:30:40;;;;;;;10.45;2.05;;;;;;;11.70;100.00;101809.56;6083851;23;20024;-90
2023/10/03 22:33:08;;;;;;;10.38;2.05;;;;;;;11.70;100.00;101809.56;6120236;23;20018;-91
2023/10/03 22:35:35;;;;;;;7.82;2.17;;;;;;;11.74;100.00;101810.69;6105515;23;20017;-89
2023/10/03 22:38:00;;;;;;;6.35;1.80;;;;;;;11.73;100.00;101810.94;6154839;23;20531;-89
2023/10/03 22:40:28;;;;;;;9.75;1.98;;;;;;;11.72;100.00;101810.13;6130094;23;20018;-90
2023/10/03 22:42:55;;;;;;;7.50;1.77;;;;;;;11.71;100.00;101813.03;6155958;23;20017;-88
2023/10/03 22:45:24;;;;;;;6.43;1.80;;;;;;;11.75;100.00;101812.28;6154006;23;20040;-90
2023/10/03 22:47:50;;;;;;;6.75;1.42;;;;;;;11.74;100.00;101815.25;6104446;23;20447;-90
2023/10/03 22:50:19;;;;;;;8.30;1.80;;;;;;;11.72;100.00;101810.13;6104572;23;20021;-90
2023/10/03 22:52:46;;;;;;;5.80;2.13;;;;;;;11.68;100.00;101809.00;6080310;23;20109;-89
2023/10/03 22:55:12;;;;;;;8.90;2.00;;;;;;;11.63;100.00;101808.13;6128868;23;20021;-90
2023/10/03 22:57:37;;;;;;;12.00;2.45;;;;;;;11.62;100.00;101806.50;6080522;23;20014;-91
2023/10/03 23:00:04;;;;;;;6.43;2.35;;;;;;;11.59;100.00;101817.75;6080767;23;20009;-88
2023/10/03 23:02:29;;;;;;;6.57;2.03;;;;;;;11.57;100.00;101809.94;6127267;23;20102;-90
2023/10/03 23:04:56;;;;;;;10.32;1.40;;;;;;;11.56;100.00;101813.69;6103869;23;20017;-89
2023/10/03 23:07:22;;;;;;;10.40;1.90;;;;;;;11.55;100.00;101817.41;6128897;23;20022;-91
2023/10/03 23:09:48;;;;;;;11.02;2.05;;;;;;;11.51;100.00;101821.66;6128054;23;20013;-90
2023/10/03 23:12:14;;;;;;;11.25;1.98;;;;;;;11.47;100.00;101825.91;6127985;23;20021;-89
2023/10/03 23:14:44;;;;;;;12.55;2.53;;;;;;;11.45;100.00;101822.69;6153190;23;20730;-90
2023/10/03 23:17:11;;;;;;;8.48;1.77;;;;;;;11.44;100.00;101823.72;6153623;23;20436;-88
2023/10/03 23:19:37;;;;;;;9.93;2.10;;;;;;;11.43;100.00;101830.94;6152880;23;20025;-91
2023/10/03 23:22:05;;;;;;;9.55;2.03;;;;;;;11.40;100.00;101825.28;6101602;23;20410;-89
2023/10/03 23:24:50;;;;;;;7.47;1.50;;;;;;;11.39;100.00;101824.47;6111088;23;20548;-88
2023/10/03 23:27:15;;;;;;;12.20;2.35;;;;;;;11.39;100.00;101819.13;6152718;23;20026;-90
2023/10/03 23:29:41;;;;;;;8.07;2.97;;;;;;;11.42;100.00;101823.16;6153377;23;20468;-91
2023/10/03 23:32:07;;;;;;;8.60;1.95;;;;;;;11.38;100.00;101822.84;6103493;23;20038;-88
2023/10/03 23:34:33;;;;;;;12.43;2.35;;;;;;;11.41;100.00;101822.34;6104163;23;20045;-89
2023/10/03 23:37:01;;;;;;;12.00;2.15;;;;;;;11.41;100.00;101826.91;6103413;23;20055;-89
2023/10/03 23:39:27;;;;;;;6.75;2.05;;;;;;;11.40;100.00;101822.59;6152841;23;20009;-89
2023/10/03 23:41:54;;;;;;;8.40;2.08;;;;;;;11.39;100.00;101818.31;6079439;23;20022;-91
2023/10/03 23:44:20;;;;;;;9.45;1.83;;;;;;;11.41;100.00;101816.19;6104307;23;20017;-89
2023/10/03 23:46:48;;;;;;;7.18;2.30;;;;;;;11.41;100.00;101827.72;6128109;23;20447;-89
2023/10/03 23:49:14;;;;;;;5.78;1.42;;;;;;;11.43;100.00;101824.78;6153779;23;20020;-89
2023/10/03 23:51:41;;;;;;;8.15;2.00;;;;;;;11.40;100.00;101841.38;6128961;23;20100;-88
2023/10/03 23:54:09;;;;;;;5.05;1.67;;;;;;;11.36;100.00;101841.03;6128641;23;20064;-89
2023/10/03 23:56:41;;;;;;;9.27;2.25;;;;;;;11.38;100.00;101838.13;6128079;23;20021;-88
2023/10/03 23:59:10;;;;;;;7.13;1.63;;;;;;;11.38;100.00;101832.75;6128491;23;20025;-91
